SAA1415 FAOR-FACT
Flight info
| Callsign | SAA1415 |
|---|---|
| Flight time | N/A |
| Altitude | 38000 |
| Route | RAGUL1D RAGUL UQ10 DUMDO UZ26 ERDAS ERDAS1B |
| Aircraft | A320/M-SDE3FGHIRWY/LB1 |
Departure
| Time | 2026-05-08 01:24 |
|---|---|
| Airport | O.R. Tambo International Airport (FAOR) |
Arrival
| Time | N/A |
|---|---|
| Airport | Cape Town International Airport (FACT) |
| Time | Latitude | Longitude | Altitude | Speed | Heading |
|---|---|---|---|---|---|
| 2026-05-08 01:15 | -26.13159 | 28.23411 | 5548 ft | 0 kts | 6° |
| 2026-05-08 01:16 | -26.13156 | 28.23411 | 5548 ft | 1 kts | 6° |
| 2026-05-08 01:16 | -26.13145 | 28.23412 | 5550 ft | 2 kts | 6° |
| 2026-05-08 01:17 | -26.13126 | 28.23415 | 5547 ft | 3 kts | 12° |
| 2026-05-08 01:17 | -26.13117 | 28.23434 | 5549 ft | 3 kts | 70° |
| 2026-05-08 01:17 | -26.13115 | 28.23463 | 5546 ft | 4 kts | 90° |
| 2026-05-08 01:17 | -26.13117 | 28.23501 | 5546 ft | 5 kts | 95° |
| 2026-05-08 01:18 | -26.13122 | 28.23548 | 5551 ft | 7 kts | 98° |
| 2026-05-08 01:18 | -26.13131 | 28.23611 | 5545 ft | 9 kts | 98° |
| 2026-05-08 01:18 | -26.13129 | 28.23686 | 5545 ft | 11 kts | 68° |
| 2026-05-08 01:18 | -26.13063 | 28.23722 | 5547 ft | 12 kts | 15° |
| 2026-05-08 01:19 | -26.12980 | 28.23748 | 5549 ft | 13 kts | 16° |
| 2026-05-08 01:19 | -26.12887 | 28.23780 | 5547 ft | 15 kts | 19° |
| 2026-05-08 01:19 | -26.12785 | 28.23813 | 5547 ft | 16 kts | 11° |
| 2026-05-08 01:19 | -26.12680 | 28.23841 | 5547 ft | 17 kts | 17° |
| 2026-05-08 01:20 | -26.12561 | 28.23879 | 5544 ft | 19 kts | 16° |
| 2026-05-08 01:20 | -26.12422 | 28.23921 | 5541 ft | 22 kts | 15° |
| 2026-05-08 01:20 | -26.12270 | 28.23969 | 5537 ft | 24 kts | 16° |
| 2026-05-08 01:20 | -26.12102 | 28.24023 | 5534 ft | 26 kts | 16° |
| 2026-05-08 01:21 | -26.11919 | 28.24077 | 5532 ft | 29 kts | 15° |
| 2026-05-08 01:21 | -26.11718 | 28.24140 | 5526 ft | 31 kts | 16° |
| 2026-05-08 01:21 | -26.11511 | 28.24203 | 5526 ft | 32 kts | 15° |
| 2026-05-08 01:21 | -26.11296 | 28.24270 | 5523 ft | 33 kts | 15° |
| 2026-05-08 01:22 | -26.11066 | 28.24340 | 5515 ft | 36 kts | 15° |
| 2026-05-08 01:22 | -26.10866 | 28.24393 | 5511 ft | 17 kts | 7° |
| 2026-05-08 01:22 | -26.10777 | 28.24434 | 5508 ft | 12 kts | 58° |
| 2026-05-08 01:22 | -26.10789 | 28.24528 | 5508 ft | 13 kts | 107° |
| 2026-05-08 01:23 | -26.10828 | 28.24607 | 5508 ft | 8 kts | 157° |
| 2026-05-08 01:23 | -26.10876 | 28.24601 | 5508 ft | 6 kts | 195° |
| 2026-05-08 01:23 | -26.10897 | 28.24594 | 5508 ft | 0 kts | 196° |
| 2026-05-08 01:23 | -26.10923 | 28.24587 | 5509 ft | 24 kts | 195° |
| 2026-05-08 01:24 | -26.11307 | 28.24472 | 5526 ft | 88 kts | 195° |
| 2026-05-08 01:24 | -26.12077 | 28.24228 | 5534 ft | 140 kts | 195° |
| 2026-05-08 01:24 | -26.13161 | 28.23899 | 5552 ft | 181 kts | 195° |
| 2026-05-08 01:24 | -26.14372 | 28.23544 | 6275 ft | 176 kts | 195° |
| 2026-05-08 01:25 | -26.15541 | 28.23185 | 7037 ft | 179 kts | 197° |
| 2026-05-08 01:25 | -26.16859 | 28.22768 | 7423 ft | 216 kts | 197° |
| 2026-05-08 01:25 | -26.18458 | 28.22259 | 7847 ft | 260 kts | 197° |
| 2026-05-08 01:25 | -26.20239 | 28.21694 | 8995 ft | 261 kts | 198° |
| 2026-05-08 01:26 | -26.21988 | 28.21161 | 10366 ft | 267 kts | 199° |
| 2026-05-08 01:26 | -26.23845 | 28.20580 | 11251 ft | 289 kts | 199° |
| 2026-05-08 01:26 | -26.25818 | 28.19901 | 12033 ft | 305 kts | 207° |
| 2026-05-08 01:26 | -26.27617 | 28.18620 | 12761 ft | 319 kts | 225° |
| 2026-05-08 01:27 | -26.28981 | 28.16670 | 13897 ft | 318 kts | 244° |
| 2026-05-08 01:27 | -26.29752 | 28.14379 | 15101 ft | 317 kts | 258° |
| 2026-05-08 01:27 | -26.29918 | 28.11886 | 15970 ft | 329 kts | 274° |
| 2026-05-08 01:27 | -26.29691 | 28.09362 | 17280 ft | 325 kts | 275° |
| 2026-05-08 01:28 | -26.29531 | 28.06826 | 18301 ft | 334 kts | 274° |
| 2026-05-08 01:28 | -26.29420 | 28.04206 | 19130 ft | 342 kts | 273° |
| 2026-05-08 01:28 | -26.29326 | 28.01541 | 20137 ft | 346 kts | 273° |
| 2026-05-08 01:28 | -26.29228 | 27.98846 | 21228 ft | 350 kts | 274° |
| 2026-05-08 01:29 | -26.29130 | 27.96128 | 22244 ft | 353 kts | 271° |
| 2026-05-08 01:29 | -26.29382 | 27.93386 | 23234 ft | 360 kts | 261° |
| 2026-05-08 01:29 | -26.30215 | 27.90720 | 24066 ft | 370 kts | 249° |
| 2026-05-08 01:29 | -26.31364 | 27.88143 | 24863 ft | 373 kts | 249° |
| 2026-05-08 01:30 | -26.32527 | 27.85548 | 25677 ft | 375 kts | 249° |
| 2026-05-08 01:30 | -26.33696 | 27.82942 | 26502 ft | 377 kts | 249° |
| 2026-05-08 01:30 | -26.34871 | 27.80316 | 27303 ft | 380 kts | 249° |
| 2026-05-08 01:30 | -26.36048 | 27.77682 | 28153 ft | 381 kts | 249° |
| 2026-05-08 01:31 | -26.37234 | 27.75021 | 28947 ft | 383 kts | 249° |
| 2026-05-08 01:31 | -26.38422 | 27.72350 | 29690 ft | 385 kts | 249° |
| 2026-05-08 01:31 | -26.39618 | 27.69661 | 30392 ft | 388 kts | 249° |
| 2026-05-08 01:31 | -26.40817 | 27.66959 | 30995 ft | 390 kts | 250° |
| 2026-05-08 01:32 | -26.42015 | 27.64259 | 31839 ft | 387 kts | 250° |
| 2026-05-08 01:32 | -26.43203 | 27.61586 | 32731 ft | 383 kts | 250° |
| 2026-05-08 01:32 | -26.44455 | 27.58965 | 33596 ft | 385 kts | 244° |
| 2026-05-08 01:32 | -26.46093 | 27.56577 | 34400 ft | 392 kts | 236° |
| 2026-05-08 01:33 | -26.48059 | 27.54438 | 35095 ft | 395 kts | 233° |
| 2026-05-08 01:33 | -26.50044 | 27.52332 | 35771 ft | 393 kts | 233° |
| 2026-05-08 01:33 | -26.52020 | 27.50232 | 36442 ft | 392 kts | 233° |
| 2026-05-08 01:33 | -26.53991 | 27.48130 | 37094 ft | 391 kts | 234° |
| 2026-05-08 01:34 | -26.55953 | 27.46031 | 37794 ft | 390 kts | 234° |
| 2026-05-08 01:34 | -26.57920 | 27.43921 | 38112 ft | 392 kts | 234° |
| 2026-05-08 01:34 | -26.59888 | 27.41813 | 38186 ft | 392 kts | 234° |
| 2026-05-08 01:35 | -26.63843 | 27.37577 | 38190 ft | 395 kts | 234° |
| 2026-05-08 01:35 | -26.67785 | 27.33358 | 38191 ft | 395 kts | 234° |
| 2026-05-08 01:36 | -26.71746 | 27.29107 | 38189 ft | 394 kts | 234° |
| 2026-05-08 01:36 | -26.75708 | 27.24841 | 38184 ft | 395 kts | 234° |
| 2026-05-08 01:37 | -26.79672 | 27.20582 | 38182 ft | 394 kts | 234° |
| 2026-05-08 01:37 | -26.83638 | 27.16325 | 38218 ft | 395 kts | 234° |
| 2026-05-08 01:38 | -26.87601 | 27.12055 | 38197 ft | 395 kts | 234° |
| 2026-05-08 01:38 | -26.91553 | 27.07786 | 38187 ft | 394 kts | 234° |
| 2026-05-08 01:39 | -26.95505 | 27.03507 | 38192 ft | 395 kts | 234° |
| 2026-05-08 01:39 | -26.99430 | 26.99221 | 38198 ft | 394 kts | 234° |
| 2026-05-08 01:40 | -27.03332 | 26.94910 | 38176 ft | 394 kts | 234° |
| 2026-05-08 01:40 | -27.07235 | 26.90603 | 38187 ft | 394 kts | 234° |
| 2026-05-08 01:41 | -27.11150 | 26.86288 | 38236 ft | 394 kts | 234° |
| 2026-05-08 01:41 | -27.15052 | 26.81967 | 38207 ft | 394 kts | 234° |
| 2026-05-08 01:42 | -27.18958 | 26.77642 | 38196 ft | 395 kts | 234° |
| 2026-05-08 01:42 | -27.22870 | 26.73319 | 38190 ft | 394 kts | 234° |
| 2026-05-08 01:43 | -27.26780 | 26.68998 | 38186 ft | 394 kts | 234° |
| 2026-05-08 01:43 | -27.30661 | 26.64689 | 38188 ft | 394 kts | 234° |
| 2026-05-08 01:44 | -27.34556 | 26.60353 | 38187 ft | 394 kts | 234° |
| 2026-05-08 01:44 | -27.38457 | 26.56012 | 38207 ft | 395 kts | 234° |
| 2026-05-08 01:45 | -27.42354 | 26.51674 | 38194 ft | 395 kts | 234° |
| 2026-05-08 01:45 | -27.46261 | 26.47327 | 38219 ft | 395 kts | 234° |
| 2026-05-08 01:46 | -27.50168 | 26.42978 | 38202 ft | 395 kts | 234° |
| 2026-05-08 01:46 | -27.54076 | 26.38617 | 38194 ft | 395 kts | 234° |
| 2026-05-08 01:47 | -27.57978 | 26.34260 | 38186 ft | 395 kts | 234° |
| 2026-05-08 01:47 | -27.61876 | 26.29895 | 38186 ft | 395 kts | 234° |
| 2026-05-08 01:48 | -27.67725 | 26.23332 | 38198 ft | 396 kts | 234° |
| 2026-05-08 01:48 | -27.71623 | 26.18963 | 38188 ft | 395 kts | 234° |
| 2026-05-08 01:49 | -27.75520 | 26.14584 | 38188 ft | 396 kts | 234° |
| 2026-05-08 01:49 | -27.79419 | 26.10206 | 38212 ft | 395 kts | 234° |
| 2026-05-08 01:50 | -27.83317 | 26.05823 | 38191 ft | 396 kts | 234° |
| 2026-05-08 01:50 | -27.87225 | 26.01428 | 38182 ft | 396 kts | 234° |
| 2026-05-08 01:51 | -27.91092 | 25.97055 | 38189 ft | 397 kts | 234° |
| 2026-05-08 01:51 | -27.94991 | 25.92643 | 38198 ft | 396 kts | 234° |
| 2026-05-08 01:52 | -27.98896 | 25.88237 | 38188 ft | 396 kts | 234° |
| 2026-05-08 01:52 | -28.02797 | 25.83826 | 38184 ft | 397 kts | 234° |
| 2026-05-08 01:53 | -28.06037 | 25.80166 | 38180 ft | 394 kts | 234° |
| 2026-05-08 01:53 | -28.09910 | 25.75772 | 38175 ft | 395 kts | 234° |
| 2026-05-08 01:54 | -28.13789 | 25.71352 | 38215 ft | 397 kts | 233° |
| 2026-05-08 01:54 | -28.17696 | 25.66909 | 38195 ft | 399 kts | 233° |
| 2026-05-08 01:55 | -28.21620 | 25.62462 | 38201 ft | 400 kts | 233° |
| 2026-05-08 01:55 | -28.25550 | 25.57986 | 38194 ft | 400 kts | 233° |
| 2026-05-08 01:56 | -28.29473 | 25.53500 | 38192 ft | 401 kts | 233° |
| 2026-05-08 01:56 | -28.33408 | 25.49006 | 38190 ft | 401 kts | 233° |
| 2026-05-08 01:57 | -28.37348 | 25.44508 | 38192 ft | 402 kts | 233° |
| 2026-05-08 01:57 | -28.41287 | 25.40009 | 38194 ft | 402 kts | 233° |
| 2026-05-08 01:58 | -28.45224 | 25.35500 | 38197 ft | 402 kts | 233° |
| 2026-05-08 01:58 | -28.49156 | 25.30990 | 38230 ft | 402 kts | 233° |
| 2026-05-08 01:59 | -28.53094 | 25.26470 | 38205 ft | 402 kts | 233° |
| 2026-05-08 01:59 | -28.57030 | 25.21945 | 38200 ft | 402 kts | 233° |
| 2026-05-08 02:00 | -28.60961 | 25.17416 | 38200 ft | 402 kts | 233° |
| 2026-05-08 02:00 | -28.64900 | 25.12883 | 38201 ft | 403 kts | 233° |
| 2026-05-08 02:01 | -28.68834 | 25.08339 | 38205 ft | 403 kts | 233° |
| 2026-05-08 02:01 | -28.72765 | 25.03792 | 38206 ft | 403 kts | 233° |
| 2026-05-08 02:02 | -28.76674 | 24.99277 | 38219 ft | 403 kts | 233° |
| 2026-05-08 02:02 | -28.80609 | 24.94727 | 38214 ft | 403 kts | 233° |
| 2026-05-08 02:03 | -28.84543 | 24.90179 | 38211 ft | 403 kts | 233° |
| 2026-05-08 02:03 | -28.88471 | 24.85623 | 38209 ft | 402 kts | 233° |
| 2026-05-08 02:04 | -28.92397 | 24.81063 | 38207 ft | 403 kts | 233° |
| 2026-05-08 02:04 | -28.96314 | 24.76504 | 38205 ft | 402 kts | 233° |
| 2026-05-08 02:05 | -29.00232 | 24.71944 | 38203 ft | 402 kts | 233° |
| 2026-05-08 02:05 | -29.04149 | 24.67382 | 38203 ft | 402 kts | 233° |
| 2026-05-08 02:06 | -29.08062 | 24.62814 | 38203 ft | 402 kts | 233° |
| 2026-05-08 02:06 | -29.11978 | 24.58242 | 38205 ft | 403 kts | 233° |
| 2026-05-08 02:07 | -29.15895 | 24.53667 | 38207 ft | 402 kts | 233° |
| 2026-05-08 02:07 | -29.19799 | 24.49095 | 38201 ft | 401 kts | 233° |
| 2026-05-08 02:08 | -29.23673 | 24.44551 | 38197 ft | 401 kts | 233° |
| 2026-05-08 02:08 | -29.27570 | 24.39971 | 38199 ft | 402 kts | 233° |
| 2026-05-08 02:09 | -29.31471 | 24.35386 | 38211 ft | 402 kts | 233° |
| 2026-05-08 02:09 | -29.35371 | 24.30803 | 38208 ft | 402 kts | 233° |
| 2026-05-08 02:10 | -29.39270 | 24.26215 | 38206 ft | 402 kts | 233° |
| 2026-05-08 02:10 | -29.43168 | 24.21621 | 38205 ft | 402 kts | 233° |
| 2026-05-08 02:11 | -29.47063 | 24.17028 | 38212 ft | 402 kts | 233° |
| 2026-05-08 02:11 | -29.50955 | 24.12427 | 38231 ft | 402 kts | 233° |
| 2026-05-08 02:12 | -29.54846 | 24.07820 | 38218 ft | 402 kts | 233° |
| 2026-05-08 02:12 | -29.58740 | 24.03207 | 38222 ft | 402 kts | 233° |
| 2026-05-08 02:13 | -29.62639 | 23.98582 | 38213 ft | 403 kts | 233° |
| 2026-05-08 02:13 | -29.66537 | 23.93951 | 38210 ft | 403 kts | 233° |
| 2026-05-08 02:14 | -29.70437 | 23.89317 | 38209 ft | 403 kts | 233° |
| 2026-05-08 02:14 | -29.74344 | 23.84678 | 38206 ft | 404 kts | 233° |
| 2026-05-08 02:15 | -29.78246 | 23.80036 | 38206 ft | 403 kts | 233° |
| 2026-05-08 02:15 | -29.82144 | 23.75385 | 38208 ft | 404 kts | 233° |
| 2026-05-08 02:16 | -29.86050 | 23.70727 | 38206 ft | 404 kts | 232° |
| 2026-05-08 02:16 | -29.89941 | 23.66068 | 38192 ft | 403 kts | 232° |
| 2026-05-08 02:17 | -29.93810 | 23.61431 | 38188 ft | 404 kts | 232° |
| 2026-05-08 02:17 | -29.97709 | 23.56749 | 38191 ft | 405 kts | 232° |
| 2026-05-08 02:18 | -30.01616 | 23.52062 | 38195 ft | 405 kts | 232° |
| 2026-05-08 02:18 | -30.05520 | 23.47371 | 38189 ft | 405 kts | 232° |
| 2026-05-08 02:19 | -30.09424 | 23.42671 | 38216 ft | 405 kts | 232° |
| 2026-05-08 02:19 | -30.13322 | 23.37972 | 38217 ft | 405 kts | 232° |
| 2026-05-08 02:20 | -30.17223 | 23.33270 | 38220 ft | 405 kts | 232° |
| 2026-05-08 02:20 | -30.21118 | 23.28571 | 38237 ft | 405 kts | 232° |
| 2026-05-08 02:21 | -30.25013 | 23.23860 | 38230 ft | 405 kts | 232° |
| 2026-05-08 02:21 | -30.28904 | 23.19156 | 38220 ft | 404 kts | 232° |
| 2026-05-08 02:22 | -30.32796 | 23.14449 | 38215 ft | 405 kts | 232° |
| 2026-05-08 02:22 | -30.36680 | 23.09736 | 38228 ft | 404 kts | 232° |
| 2026-05-08 02:23 | -30.40562 | 23.05019 | 38234 ft | 404 kts | 232° |
| 2026-05-08 02:23 | -30.44438 | 23.00305 | 38230 ft | 404 kts | 232° |
| 2026-05-08 02:24 | -30.48306 | 22.95588 | 38223 ft | 404 kts | 232° |
| 2026-05-08 02:24 | -30.52174 | 22.90871 | 38270 ft | 404 kts | 232° |
| 2026-05-08 02:25 | -30.56019 | 22.86193 | 38237 ft | 403 kts | 232° |
| 2026-05-08 02:25 | -30.59887 | 22.81477 | 38227 ft | 403 kts | 232° |
| 2026-05-08 02:26 | -30.63739 | 22.76734 | 38237 ft | 404 kts | 232° |
| 2026-05-08 02:26 | -30.67598 | 22.71993 | 38243 ft | 404 kts | 232° |
| 2026-05-08 02:27 | -30.71466 | 22.67252 | 38241 ft | 404 kts | 232° |
| 2026-05-08 02:27 | -30.75335 | 22.62510 | 38239 ft | 404 kts | 232° |
| 2026-05-08 02:28 | -30.79188 | 22.57762 | 38249 ft | 404 kts | 232° |
| 2026-05-08 02:28 | -30.83042 | 22.53009 | 38246 ft | 404 kts | 232° |
| 2026-05-08 02:29 | -30.86897 | 22.48265 | 38269 ft | 403 kts | 232° |
| 2026-05-08 02:29 | -30.90749 | 22.43515 | 38263 ft | 403 kts | 232° |
| 2026-05-08 02:30 | -30.94594 | 22.38750 | 38262 ft | 404 kts | 232° |
| 2026-05-08 02:30 | -30.98433 | 22.33977 | 38256 ft | 404 kts | 232° |
| 2026-05-08 02:31 | -31.02274 | 22.29197 | 38257 ft | 404 kts | 232° |
| 2026-05-08 02:31 | -31.06109 | 22.24417 | 38255 ft | 403 kts | 232° |
| 2026-05-08 02:32 | -31.09943 | 22.19635 | 38255 ft | 403 kts | 232° |
| 2026-05-08 02:32 | -31.13778 | 22.14856 | 38251 ft | 403 kts | 232° |
| 2026-05-08 02:33 | -31.17598 | 22.10065 | 38265 ft | 403 kts | 232° |
| 2026-05-08 02:33 | -31.21397 | 22.05300 | 38276 ft | 404 kts | 232° |
| 2026-05-08 02:34 | -31.25237 | 22.00507 | 38257 ft | 404 kts | 232° |
| 2026-05-08 02:34 | -31.29072 | 21.95689 | 38252 ft | 404 kts | 232° |
| 2026-05-08 02:35 | -31.32900 | 21.90867 | 38249 ft | 405 kts | 232° |
| 2026-05-08 02:35 | -31.36735 | 21.86043 | 38248 ft | 405 kts | 232° |
| 2026-05-08 02:36 | -31.40564 | 21.81209 | 38251 ft | 405 kts | 232° |
| 2026-05-08 02:36 | -31.44398 | 21.76372 | 38257 ft | 405 kts | 232° |
| 2026-05-08 02:37 | -31.48235 | 21.71531 | 38256 ft | 405 kts | 232° |
| 2026-05-08 02:37 | -31.52067 | 21.66683 | 38256 ft | 405 kts | 232° |
| 2026-05-08 02:38 | -31.55900 | 21.61829 | 38270 ft | 406 kts | 232° |
| 2026-05-08 02:38 | -31.59737 | 21.56964 | 38262 ft | 406 kts | 232° |
| 2026-05-08 02:39 | -31.63574 | 21.52095 | 38253 ft | 406 kts | 232° |
| 2026-05-08 02:39 | -31.66764 | 21.48044 | 38251 ft | 406 kts | 232° |
| 2026-05-08 02:40 | -31.70593 | 21.43162 | 38253 ft | 407 kts | 232° |
| 2026-05-08 02:40 | -31.74427 | 21.38275 | 38256 ft | 407 kts | 232° |
| 2026-05-08 02:41 | -31.78258 | 21.33384 | 38262 ft | 407 kts | 232° |
| 2026-05-08 02:41 | -31.82094 | 21.28481 | 38263 ft | 407 kts | 232° |
| 2026-05-08 02:42 | -31.85929 | 21.23585 | 38277 ft | 407 kts | 232° |
| 2026-05-08 02:42 | -31.89761 | 21.18671 | 38282 ft | 408 kts | 232° |
| 2026-05-08 02:43 | -31.93597 | 21.13744 | 38285 ft | 408 kts | 232° |
| 2026-05-08 02:43 | -31.97117 | 21.09218 | 38277 ft | 409 kts | 232° |